sensor_id;sensor_type;location;lat;lon;timestamp;P1;durP1;ratioP1;P2;durP2;ratioP2
47337;SDS011;33069;51.970;5.892;2022-07-03T00:01:34;15.73;;;10.13;;
47337;SDS011;33069;51.970;5.892;2022-07-03T00:04:00;11.48;;;6.93;;
47337;SDS011;33069;51.970;5.892;2022-07-03T00:06:26;13.25;;;6.85;;
47337;SDS011;33069;51.970;5.892;2022-07-03T00:08:52;8.48;;;5.85;;
47337;SDS011;33069;51.970;5.892;2022-07-03T00:11:18;9.88;;;5.38;;
47337;SDS011;33069;51.970;5.892;2022-07-03T00:13:45;13.48;;;8.93;;
47337;SDS011;33069;51.970;5.892;2022-07-03T00:16:11;14.90;;;8.73;;
47337;SDS011;33069;51.970;5.892;2022-07-03T00:18:37;12.70;;;6.43;;
47337;SDS011;33069;51.970;5.892;2022-07-03T00:21:04;8.93;;;5.15;;
47337;SDS011;33069;51.970;5.892;2022-07-03T00:23:37;12.85;;;7.18;;
47337;SDS011;33069;51.970;5.892;2022-07-03T00:26:19;10.13;;;6.15;;
47337;SDS011;33069;51.970;5.892;2022-07-03T00:28:45;9.35;;;5.97;;
47337;SDS011;33069;51.970;5.892;2022-07-03T00:31:12;10.45;;;5.07;;
47337;SDS011;33069;51.970;5.892;2022-07-03T00:33:38;10.32;;;7.22;;
47337;SDS011;33069;51.970;5.892;2022-07-03T00:36:06;7.90;;;5.78;;
47337;SDS011;33069;51.970;5.892;2022-07-03T00:38:32;20.88;;;14.07;;
47337;SDS011;33069;51.970;5.892;2022-07-03T00:40:58;21.13;;;11.25;;
47337;SDS011;33069;51.970;5.892;2022-07-03T00:43:26;21.40;;;16.10;;
47337;SDS011;33069;51.970;5.892;2022-07-03T00:45:51;17.17;;;13.13;;
47337;SDS011;33069;51.970;5.892;2022-07-03T00:48:19;11.10;;;7.88;;
47337;SDS011;33069;51.970;5.892;2022-07-03T00:50:46;14.35;;;9.48;;
47337;SDS011;33069;51.970;5.892;2022-07-03T00:53:17;10.75;;;7.40;;
47337;SDS011;33069;51.970;5.892;2022-07-03T00:55:52;7.55;;;4.70;;
47337;SDS011;33069;51.970;5.892;2022-07-03T00:58:19;6.95;;;4.47;;
47337;SDS011;33069;51.970;5.892;2022-07-03T01:00:46;8.45;;;4.65;;
47337;SDS011;33069;51.970;5.892;2022-07-03T01:03:16;9.27;;;4.95;;
47337;SDS011;33069;51.970;5.892;2022-07-03T01:05:53;10.10;;;5.72;;
47337;SDS011;33069;51.970;5.892;2022-07-03T01:08:31;11.52;;;5.45;;
47337;SDS011;33069;51.970;5.892;2022-07-03T01:30:20;8.35;;;4.30;;
47337;SDS011;33069;51.970;5.892;2022-07-03T01:32:50;6.55;;;5.05;;
47337;SDS011;33069;51.970;5.892;2022-07-03T01:35:39;5.35;;;2.92;;
47337;SDS011;33069;51.970;5.892;2022-07-03T01:38:10;4.85;;;2.42;;
47337;SDS011;33069;51.970;5.892;2022-07-03T01:40:40;7.80;;;3.22;;
47337;SDS011;33069;51.970;5.892;2022-07-03T01:43:10;5.38;;;3.90;;
47337;SDS011;33069;51.970;5.892;2022-07-03T01:45:44;7.97;;;3.63;;
47337;SDS011;33069;51.970;5.892;2022-07-03T01:48:13;5.90;;;3.60;;
47337;SDS011;33069;51.970;5.892;2022-07-03T01:50:40;6.07;;;3.53;;
47337;SDS011;33069;51.970;5.892;2022-07-03T01:53:08;7.18;;;3.75;;
47337;SDS011;33069;51.970;5.892;2022-07-03T01:55:35;6.00;;;4.22;;
47337;SDS011;33069;51.970;5.892;2022-07-03T01:58:04;8.88;;;5.18;;
47337;SDS011;33069;51.970;5.892;2022-07-03T02:00:30;7.85;;;4.90;;
47337;SDS011;33069;51.970;5.892;2022-07-03T02:03:05;10.82;;;5.38;;
47337;SDS011;33069;51.970;5.892;2022-07-03T02:05:33;7.95;;;5.10;;
47337;SDS011;33069;51.970;5.892;2022-07-03T02:08:03;13.02;;;5.95;;
47337;SDS011;33069;51.970;5.892;2022-07-03T02:10:45;10.95;;;6.07;;
47337;SDS011;33069;51.970;5.892;2022-07-03T02:13:17;8.38;;;5.60;;
47337;SDS011;33069;51.970;5.892;2022-07-03T02:15:49;9.23;;;5.72;;
47337;SDS011;33069;51.970;5.892;2022-07-03T02:18:29;9.07;;;6.45;;
47337;SDS011;33069;51.970;5.892;2022-07-03T02:21:19;10.07;;;7.30;;
47337;SDS011;33069;51.970;5.892;2022-07-03T02:26:20;9.50;;;6.30;;
47337;SDS011;33069;51.970;5.892;2022-07-03T02:28:59;10.18;;;6.00;;
47337;SDS011;33069;51.970;5.892;2022-07-03T02:31:28;8.38;;;5.75;;
47337;SDS011;33069;51.970;5.892;2022-07-03T02:34:09;11.55;;;6.10;;
47337;SDS011;33069;51.970;5.892;2022-07-03T02:36:40;8.95;;;5.45;;
47337;SDS011;33069;51.970;5.892;2022-07-03T02:39:14;8.13;;;5.50;;
47337;SDS011;33069;51.970;5.892;2022-07-03T02:41:56;10.30;;;6.47;;
47337;SDS011;33069;51.970;5.892;2022-07-03T02:44:30;8.95;;;5.38;;
47337;SDS011;33069;51.970;5.892;2022-07-03T02:47:06;13.27;;;5.38;;
47337;SDS011;33069;51.970;5.892;2022-07-03T03:01:15;8.18;;;5.80;;
47337;SDS011;33069;51.970;5.892;2022-07-03T03:06:26;11.10;;;6.50;;
47337;SDS011;33069;51.970;5.892;2022-07-03T03:08:55;7.68;;;6.15;;
47337;SDS011;33069;51.970;5.892;2022-07-03T03:14:14;9.57;;;5.75;;
47337;SDS011;33069;51.970;5.892;2022-07-03T03:16:46;9.13;;;7.10;;
47337;SDS011;33069;51.970;5.892;2022-07-03T03:19:14;9.48;;;6.43;;
47337;SDS011;33069;51.970;5.892;2022-07-03T03:22:04;8.85;;;6.60;;
47337;SDS011;33069;51.970;5.892;2022-07-03T03:24:39;10.25;;;7.30;;
47337;SDS011;33069;51.970;5.892;2022-07-03T03:27:05;8.43;;;6.80;;
47337;SDS011;33069;51.970;5.892;2022-07-03T03:29:32;9.00;;;6.53;;
47337;SDS011;33069;51.970;5.892;2022-07-03T03:31:58;8.30;;;6.35;;
47337;SDS011;33069;51.970;5.892;2022-07-03T03:34:24;8.65;;;6.20;;
47337;SDS011;33069;51.970;5.892;2022-07-03T03:36:51;8.40;;;7.00;;
47337;SDS011;33069;51.970;5.892;2022-07-03T03:39:17;9.75;;;6.63;;
47337;SDS011;33069;51.970;5.892;2022-07-03T03:41:42;8.65;;;6.03;;
47337;SDS011;33069;51.970;5.892;2022-07-03T03:44:08;10.23;;;6.93;;
47337;SDS011;33069;51.970;5.892;2022-07-03T03:46:34;8.43;;;6.65;;
47337;SDS011;33069;51.970;5.892;2022-07-03T03:49:00;8.77;;;6.78;;
47337;SDS011;33069;51.970;5.892;2022-07-03T03:51:25;10.88;;;7.63;;
47337;SDS011;33069;51.970;5.892;2022-07-03T03:53:51;9.40;;;6.95;;
47337;SDS011;33069;51.970;5.892;2022-07-03T03:56:17;8.23;;;6.20;;
47337;SDS011;33069;51.970;5.892;2022-07-03T03:58:43;12.60;;;6.22;;
47337;SDS011;33069;51.970;5.892;2022-07-03T04:01:10;11.23;;;6.60;;
47337;SDS011;33069;51.970;5.892;2022-07-03T04:03:37;10.45;;;5.55;;
47337;SDS011;33069;51.970;5.892;2022-07-03T04:06:04;9.68;;;5.68;;
47337;SDS011;33069;51.970;5.892;2022-07-03T04:08:30;9.30;;;5.45;;
47337;SDS011;33069;51.970;5.892;2022-07-03T04:10:56;12.15;;;6.00;;
47337;SDS011;33069;51.970;5.892;2022-07-03T04:13:22;8.20;;;5.45;;
47337;SDS011;33069;51.970;5.892;2022-07-03T04:15:49;10.73;;;6.22;;
47337;SDS011;33069;51.970;5.892;2022-07-03T04:18:15;9.05;;;6.28;;
47337;SDS011;33069;51.970;5.892;2022-07-03T04:20:42;9.02;;;5.55;;
47337;SDS011;33069;51.970;5.892;2022-07-03T04:23:08;8.75;;;4.85;;
47337;SDS011;33069;51.970;5.892;2022-07-03T04:25:33;9.57;;;6.07;;
47337;SDS011;33069;51.970;5.892;2022-07-03T04:28:00;9.30;;;4.88;;
47337;SDS011;33069;51.970;5.892;2022-07-03T04:30:26;7.65;;;5.47;;
47337;SDS011;33069;51.970;5.892;2022-07-03T04:32:51;6.30;;;4.80;;
47337;SDS011;33069;51.970;5.892;2022-07-03T04:35:17;15.50;;;5.85;;
47337;SDS011;33069;51.970;5.892;2022-07-03T04:37:43;12.32;;;5.80;;
47337;SDS011;33069;51.970;5.892;2022-07-03T04:40:09;8.18;;;6.35;;
47337;SDS011;33069;51.970;5.892;2022-07-03T04:42:35;8.15;;;5.75;;
47337;SDS011;33069;51.970;5.892;2022-07-03T04:45:04;8.68;;;6.07;;
47337;SDS011;33069;51.970;5.892;2022-07-03T04:47:30;9.32;;;5.82;;
47337;SDS011;33069;51.970;5.892;2022-07-03T04:49:56;9.32;;;5.57;;
47337;SDS011;33069;51.970;5.892;2022-07-03T04:52:22;9.05;;;6.40;;
47337;SDS011;33069;51.970;5.892;2022-07-03T04:54:47;10.48;;;5.80;;
47337;SDS011;33069;51.970;5.892;2022-07-03T04:57:13;8.20;;;6.28;;
47337;SDS011;33069;51.970;5.892;2022-07-03T04:59:39;9.48;;;6.40;;
47337;SDS011;33069;51.970;5.892;2022-07-03T05:02:04;11.73;;;6.20;;
47337;SDS011;33069;51.970;5.892;2022-07-03T05:04:30;9.07;;;6.00;;
47337;SDS011;33069;51.970;5.892;2022-07-03T05:06:56;9.82;;;6.13;;
47337;SDS011;33069;51.970;5.892;2022-07-03T05:09:22;8.23;;;5.10;;
47337;SDS011;33069;51.970;5.892;2022-07-03T05:11:48;9.98;;;5.28;;
47337;SDS011;33069;51.970;5.892;2022-07-03T05:14:13;8.68;;;5.55;;
47337;SDS011;33069;51.970;5.892;2022-07-03T05:16:39;10.00;;;5.55;;
47337;SDS011;33069;51.970;5.892;2022-07-03T05:19:05;10.45;;;5.68;;
47337;SDS011;33069;51.970;5.892;2022-07-03T05:21:31;9.20;;;5.82;;
47337;SDS011;33069;51.970;5.892;2022-07-03T05:23:57;9.55;;;5.65;;
47337;SDS011;33069;51.970;5.892;2022-07-03T05:26:22;6.43;;;4.30;;
47337;SDS011;33069;51.970;5.892;2022-07-03T05:28:48;8.30;;;4.30;;
47337;SDS011;33069;51.970;5.892;2022-07-03T05:31:14;12.95;;;4.90;;
47337;SDS011;33069;51.970;5.892;2022-07-03T05:33:40;5.45;;;3.70;;
47337;SDS011;33069;51.970;5.892;2022-07-03T05:36:06;11.60;;;4.68;;
47337;SDS011;33069;51.970;5.892;2022-07-03T05:38:32;6.88;;;4.45;;
47337;SDS011;33069;51.970;5.892;2022-07-03T05:41:17;12.32;;;4.75;;
47337;SDS011;33069;51.970;5.892;2022-07-03T05:43:43;6.32;;;3.83;;
47337;SDS011;33069;51.970;5.892;2022-07-03T05:46:08;6.25;;;4.05;;
47337;SDS011;33069;51.970;5.892;2022-07-03T05:48:34;7.50;;;4.40;;
47337;SDS011;33069;51.970;5.892;2022-07-03T05:51:01;10.88;;;4.72;;
47337;SDS011;33069;51.970;5.892;2022-07-03T05:53:27;6.88;;;4.32;;
47337;SDS011;33069;51.970;5.892;2022-07-03T05:55:53;7.63;;;4.47;;
47337;SDS011;33069;51.970;5.892;2022-07-03T05:58:19;8.82;;;4.32;;
47337;SDS011;33069;51.970;5.892;2022-07-03T06:00:45;9.35;;;4.90;;
47337;SDS011;33069;51.970;5.892;2022-07-03T06:03:11;9.07;;;5.05;;
47337;SDS011;33069;51.970;5.892;2022-07-03T06:05:37;7.28;;;4.07;;
47337;SDS011;33069;51.970;5.892;2022-07-03T06:08:03;9.52;;;3.90;;
47337;SDS011;33069;51.970;5.892;2022-07-03T06:10:29;7.97;;;3.38;;
47337;SDS011;33069;51.970;5.892;2022-07-03T06:12:55;7.10;;;3.40;;
47337;SDS011;33069;51.970;5.892;2022-07-03T06:15:21;11.13;;;4.32;;
47337;SDS011;33069;51.970;5.892;2022-07-03T06:17:47;8.82;;;3.70;;
47337;SDS011;33069;51.970;5.892;2022-07-03T06:20:12;6.55;;;3.80;;
47337;SDS011;33069;51.970;5.892;2022-07-03T06:22:38;8.10;;;3.42;;
47337;SDS011;33069;51.970;5.892;2022-07-03T06:25:05;7.65;;;3.75;;
47337;SDS011;33069;51.970;5.892;2022-07-03T06:27:31;8.77;;;3.20;;
47337;SDS011;33069;51.970;5.892;2022-07-03T06:29:57;12.80;;;3.45;;
47337;SDS011;33069;51.970;5.892;2022-07-03T06:32:23;10.38;;;3.80;;
47337;SDS011;33069;51.970;5.892;2022-07-03T06:34:49;6.53;;;3.00;;
47337;SDS011;33069;51.970;5.892;2022-07-03T06:37:15;5.75;;;2.92;;
47337;SDS011;33069;51.970;5.892;2022-07-03T06:39:40;4.72;;;2.40;;
47337;SDS011;33069;51.970;5.892;2022-07-03T06:42:06;7.85;;;2.47;;
47337;SDS011;33069;51.970;5.892;2022-07-03T06:44:32;6.70;;;2.60;;
47337;SDS011;33069;51.970;5.892;2022-07-03T06:46:58;9.07;;;2.55;;
47337;SDS011;33069;51.970;5.892;2022-07-03T06:49:28;6.95;;;2.75;;
47337;SDS011;33069;51.970;5.892;2022-07-03T06:51:58;5.70;;;2.22;;
47337;SDS011;33069;51.970;5.892;2022-07-03T06:54:23;8.32;;;2.53;;
47337;SDS011;33069;51.970;5.892;2022-07-03T06:56:49;8.27;;;2.13;;
47337;SDS011;33069;51.970;5.892;2022-07-03T06:59:15;6.95;;;2.35;;
47337;SDS011;33069;51.970;5.892;2022-07-03T07:01:41;8.50;;;2.10;;
47337;SDS011;33069;51.970;5.892;2022-07-03T07:04:07;4.78;;;2.00;;
47337;SDS011;33069;51.970;5.892;2022-07-03T07:06:32;6.07;;;1.83;;
47337;SDS011;33069;51.970;5.892;2022-07-03T07:08:58;3.80;;;2.15;;
47337;SDS011;33069;51.970;5.892;2022-07-03T07:11:24;5.20;;;2.08;;
47337;SDS011;33069;51.970;5.892;2022-07-03T07:13:50;4.13;;;1.90;;
47337;SDS011;33069;51.970;5.892;2022-07-03T07:16:15;4.57;;;2.03;;
47337;SDS011;33069;51.970;5.892;2022-07-03T07:18:42;6.00;;;2.15;;
47337;SDS011;33069;51.970;5.892;2022-07-03T07:21:08;8.30;;;2.35;;
47337;SDS011;33069;51.970;5.892;2022-07-03T07:23:34;8.35;;;2.20;;
47337;SDS011;33069;51.970;5.892;2022-07-03T07:26:01;8.48;;;2.10;;
47337;SDS011;33069;51.970;5.892;2022-07-03T07:28:27;5.45;;;2.03;;
47337;SDS011;33069;51.970;5.892;2022-07-03T07:30:53;12.18;;;2.25;;
47337;SDS011;33069;51.970;5.892;2022-07-03T07:33:21;6.65;;;2.08;;
47337;SDS011;33069;51.970;5.892;2022-07-03T07:35:47;7.22;;;2.45;;
47337;SDS011;33069;51.970;5.892;2022-07-03T07:38:13;5.32;;;2.50;;
47337;SDS011;33069;51.970;5.892;2022-07-03T07:40:38;6.75;;;2.33;;
47337;SDS011;33069;51.970;5.892;2022-07-03T07:43:04;5.60;;;2.00;;
47337;SDS011;33069;51.970;5.892;2022-07-03T07:45:30;5.88;;;2.35;;
47337;SDS011;33069;51.970;5.892;2022-07-03T07:47:55;6.40;;;1.98;;
47337;SDS011;33069;51.970;5.892;2022-07-03T07:50:21;5.50;;;1.83;;
47337;SDS011;33069;51.970;5.892;2022-07-03T07:52:47;6.47;;;2.20;;
47337;SDS011;33069;51.970;5.892;2022-07-03T07:55:13;5.90;;;1.50;;
47337;SDS011;33069;51.970;5.892;2022-07-03T07:57:39;6.43;;;1.95;;
47337;SDS011;33069;51.970;5.892;2022-07-03T08:00:09;7.05;;;1.75;;
47337;SDS011;33069;51.970;5.892;2022-07-03T08:02:37;5.45;;;1.77;;
47337;SDS011;33069;51.970;5.892;2022-07-03T08:05:21;8.98;;;2.22;;
47337;SDS011;33069;51.970;5.892;2022-07-03T08:08:07;6.38;;;2.20;;
47337;SDS011;33069;51.970;5.892;2022-07-03T08:10:33;8.00;;;1.80;;
47337;SDS011;33069;51.970;5.892;2022-07-03T08:13:10;10.27;;;1.92;;
47337;SDS011;33069;51.970;5.892;2022-07-03T08:15:37;6.25;;;1.67;;
47337;SDS011;33069;51.970;5.892;2022-07-03T08:18:03;3.47;;;1.48;;
47337;SDS011;33069;51.970;5.892;2022-07-03T08:20:30;5.38;;;1.98;;
47337;SDS011;33069;51.970;5.892;2022-07-03T08:22:56;4.72;;;1.50;;
47337;SDS011;33069;51.970;5.892;2022-07-03T08:25:23;6.90;;;1.67;;
47337;SDS011;33069;51.970;5.892;2022-07-03T08:27:48;5.57;;;1.52;;
47337;SDS011;33069;51.970;5.892;2022-07-03T08:30:14;7.35;;;1.70;;
47337;SDS011;33069;51.970;5.892;2022-07-03T08:32:46;5.97;;;1.70;;
47337;SDS011;33069;51.970;5.892;2022-07-03T08:35:13;3.65;;;1.50;;
47337;SDS011;33069;51.970;5.892;2022-07-03T08:37:39;6.95;;;1.60;;
47337;SDS011;33069;51.970;5.892;2022-07-03T08:40:12;6.72;;;1.80;;
47337;SDS011;33069;51.970;5.892;2022-07-03T08:42:42;3.28;;;1.50;;
47337;SDS011;33069;51.970;5.892;2022-07-03T08:45:13;3.17;;;1.27;;
47337;SDS011;33069;51.970;5.892;2022-07-03T08:47:41;5.32;;;1.52;;
47337;SDS011;33069;51.970;5.892;2022-07-03T08:50:09;5.03;;;1.30;;
47337;SDS011;33069;51.970;5.892;2022-07-03T08:52:37;2.47;;;1.55;;
47337;SDS011;33069;51.970;5.892;2022-07-03T08:55:03;8.52;;;1.65;;
47337;SDS011;33069;51.970;5.892;2022-07-03T08:57:33;3.35;;;1.33;;
47337;SDS011;33069;51.970;5.892;2022-07-03T09:00:06;7.95;;;1.63;;
47337;SDS011;33069;51.970;5.892;2022-07-03T09:02:34;3.38;;;1.20;;
47337;SDS011;33069;51.970;5.892;2022-07-03T09:05:00;3.15;;;1.05;;
47337;SDS011;33069;51.970;5.892;2022-07-03T09:07:27;2.80;;;1.42;;
47337;SDS011;33069;51.970;5.892;2022-07-03T09:09:59;5.25;;;1.48;;
47337;SDS011;33069;51.970;5.892;2022-07-03T09:12:25;3.47;;;1.48;;
47337;SDS011;33069;51.970;5.892;2022-07-03T09:14:51;3.80;;;1.30;;
47337;SDS011;33069;51.970;5.892;2022-07-03T09:17:16;4.45;;;1.25;;
47337;SDS011;33069;51.970;5.892;2022-07-03T09:19:44;3.63;;;1.60;;
47337;SDS011;33069;51.970;5.892;2022-07-03T09:22:25;5.03;;;1.08;;
47337;SDS011;33069;51.970;5.892;2022-07-03T09:25:13;4.32;;;1.63;;
47337;SDS011;33069;51.970;5.892;2022-07-03T09:27:51;2.92;;;1.20;;
47337;SDS011;33069;51.970;5.892;2022-07-03T09:30:18;2.75;;;1.60;;
47337;SDS011;33069;51.970;5.892;2022-07-03T09:32:45;3.97;;;1.20;;
47337;SDS011;33069;51.970;5.892;2022-07-03T09:35:26;6.38;;;1.55;;
47337;SDS011;33069;51.970;5.892;2022-07-03T09:40:21;4.47;;;1.50;;
47337;SDS011;33069;51.970;5.892;2022-07-03T09:43:04;3.67;;;1.80;;
47337;SDS011;33069;51.970;5.892;2022-07-03T09:48:25;2.88;;;1.10;;
47337;SDS011;33069;51.970;5.892;2022-07-03T09:51:07;3.83;;;1.30;;
47337;SDS011;33069;51.970;5.892;2022-07-03T09:54:03;5.95;;;1.63;;
47337;SDS011;33069;51.970;5.892;2022-07-03T09:56:36;4.63;;;1.60;;
47337;SDS011;33069;51.970;5.892;2022-07-03T10:01:29;4.38;;;1.45;;
47337;SDS011;33069;51.970;5.892;2022-07-03T10:03:56;6.57;;;1.40;;
47337;SDS011;33069;51.970;5.892;2022-07-03T10:09:18;3.70;;;1.30;;
47337;SDS011;33069;51.970;5.892;2022-07-03T10:11:46;2.75;;;1.30;;
47337;SDS011;33069;51.970;5.892;2022-07-03T10:14:16;5.57;;;1.92;;
47337;SDS011;33069;51.970;5.892;2022-07-03T10:16:46;6.72;;;1.55;;
47337;SDS011;33069;51.970;5.892;2022-07-03T10:19:14;4.47;;;2.17;;
47337;SDS011;33069;51.970;5.892;2022-07-03T10:21:51;5.53;;;1.20;;
47337;SDS011;33069;51.970;5.892;2022-07-03T10:24:18;6.75;;;2.05;;
47337;SDS011;33069;51.970;5.892;2022-07-03T10:26:46;5.88;;;1.38;;
47337;SDS011;33069;51.970;5.892;2022-07-03T10:29:13;3.25;;;1.63;;
47337;SDS011;33069;51.970;5.892;2022-07-03T10:31:42;2.38;;;1.42;;
47337;SDS011;33069;51.970;5.892;2022-07-03T10:34:10;6.13;;;1.60;;
47337;SDS011;33069;51.970;5.892;2022-07-03T10:36:36;6.32;;;1.40;;
47337;SDS011;33069;51.970;5.892;2022-07-03T10:39:06;7.40;;;1.50;;
47337;SDS011;33069;51.970;5.892;2022-07-03T10:41:35;3.80;;;1.40;;
47337;SDS011;33069;51.970;5.892;2022-07-03T10:44:24;3.92;;;1.20;;
47337;SDS011;33069;51.970;5.892;2022-07-03T10:50:02;6.22;;;1.98;;
47337;SDS011;33069;51.970;5.892;2022-07-03T10:52:31;3.83;;;1.73;;
47337;SDS011;33069;51.970;5.892;2022-07-03T10:54:57;3.83;;;1.73;;
47337;SDS011;33069;51.970;5.892;2022-07-03T10:57:24;4.03;;;1.40;;
47337;SDS011;33069;51.970;5.892;2022-07-03T11:15:28;5.45;;;1.80;;
47337;SDS011;33069;51.970;5.892;2022-07-03T11:20:37;5.47;;;1.60;;
47337;SDS011;33069;51.970;5.892;2022-07-03T11:25:53;3.13;;;1.13;;
47337;SDS011;33069;51.970;5.892;2022-07-03T11:44:04;3.00;;;1.50;;
47337;SDS011;33069;51.970;5.892;2022-07-03T11:46:31;5.28;;;1.80;;
47337;SDS011;33069;51.970;5.892;2022-07-03T11:49:12;4.20;;;1.60;;
47337;SDS011;33069;51.970;5.892;2022-07-03T11:51:43;4.55;;;1.27;;
47337;SDS011;33069;51.970;5.892;2022-07-03T11:54:51;3.78;;;1.35;;
47337;SDS011;33069;51.970;5.892;2022-07-03T11:57:18;2.88;;;1.30;;
47337;SDS011;33069;51.970;5.892;2022-07-03T11:59:45;2.55;;;1.33;;
47337;SDS011;33069;51.970;5.892;2022-07-03T12:02:10;3.90;;;1.20;;
47337;SDS011;33069;51.970;5.892;2022-07-03T12:04:36;2.55;;;1.42;;
47337;SDS011;33069;51.970;5.892;2022-07-03T12:07:03;4.35;;;1.48;;
47337;SDS011;33069;51.970;5.892;2022-07-03T12:09:30;1.63;;;1.05;;
47337;SDS011;33069;51.970;5.892;2022-07-03T12:12:03;5.50;;;1.20;;
47337;SDS011;33069;51.970;5.892;2022-07-03T12:14:34;3.55;;;1.50;;
47337;SDS011;33069;51.970;5.892;2022-07-03T12:19:47;3.45;;;1.20;;
47337;SDS011;33069;51.970;5.892;2022-07-03T12:22:27;6.55;;;1.52;;
47337;SDS011;33069;51.970;5.892;2022-07-03T12:24:58;4.40;;;1.65;;
47337;SDS011;33069;51.970;5.892;2022-07-03T12:27:37;3.17;;;1.40;;
47337;SDS011;33069;51.970;5.892;2022-07-03T12:30:05;5.32;;;1.38;;
47337;SDS011;33069;51.970;5.892;2022-07-03T12:32:32;2.35;;;1.00;;
47337;SDS011;33069;51.970;5.892;2022-07-03T12:34:58;4.57;;;1.70;;
47337;SDS011;33069;51.970;5.892;2022-07-03T12:37:32;3.92;;;1.63;;
47337;SDS011;33069;51.970;5.892;2022-07-03T12:39:59;4.88;;;1.25;;
47337;SDS011;33069;51.970;5.892;2022-07-03T12:42:24;3.05;;;1.17;;
47337;SDS011;33069;51.970;5.892;2022-07-03T12:47:23;4.53;;;1.40;;
47337;SDS011;33069;51.970;5.892;2022-07-03T12:52:26;8.13;;;2.08;;
47337;SDS011;33069;51.970;5.892;2022-07-03T12:54:53;4.03;;;1.10;;
47337;SDS011;33069;51.970;5.892;2022-07-03T12:57:19;2.20;;;1.17;;
47337;SDS011;33069;51.970;5.892;2022-07-03T13:00:15;4.47;;;1.20;;
47337;SDS011;33069;51.970;5.892;2022-07-03T13:02:43;6.45;;;1.35;;
47337;SDS011;33069;51.970;5.892;2022-07-03T13:07:52;4.75;;;1.30;;
47337;SDS011;33069;51.970;5.892;2022-07-03T13:10:20;3.60;;;1.20;;
47337;SDS011;33069;51.970;5.892;2022-07-03T13:12:50;3.22;;;1.33;;
47337;SDS011;33069;51.970;5.892;2022-07-03T13:15:19;3.88;;;1.27;;
47337;SDS011;33069;51.970;5.892;2022-07-03T13:20:24;4.53;;;1.25;;
47337;SDS011;33069;51.970;5.892;2022-07-03T13:22:56;2.70;;;1.10;;
47337;SDS011;33069;51.970;5.892;2022-07-03T13:25:23;3.17;;;1.23;;
47337;SDS011;33069;51.970;5.892;2022-07-03T13:27:49;5.35;;;1.30;;
47337;SDS011;33069;51.970;5.892;2022-07-03T13:30:18;3.85;;;1.40;;
47337;SDS011;33069;51.970;5.892;2022-07-03T13:32:44;4.05;;;1.20;;
47337;SDS011;33069;51.970;5.892;2022-07-03T13:35:11;4.43;;;1.48;;
47337;SDS011;33069;51.970;5.892;2022-07-03T13:37:37;5.18;;;1.83;;
47337;SDS011;33069;51.970;5.892;2022-07-03T13:40:03;4.25;;;2.08;;
47337;SDS011;33069;51.970;5.892;2022-07-03T13:42:31;6.40;;;1.38;;
47337;SDS011;33069;51.970;5.892;2022-07-03T13:44:57;3.67;;;1.50;;
47337;SDS011;33069;51.970;5.892;2022-07-03T13:47:22;3.15;;;1.30;;
47337;SDS011;33069;51.970;5.892;2022-07-03T13:49:48;4.30;;;1.35;;
47337;SDS011;33069;51.970;5.892;2022-07-03T13:52:14;5.38;;;1.50;;
47337;SDS011;33069;51.970;5.892;2022-07-03T13:54:40;5.55;;;1.58;;
47337;SDS011;33069;51.970;5.892;2022-07-03T13:57:06;2.92;;;1.52;;
47337;SDS011;33069;51.970;5.892;2022-07-03T13:59:31;3.38;;;1.55;;
47337;SDS011;33069;51.970;5.892;2022-07-03T14:01:57;1.88;;;1.30;;
47337;SDS011;33069;51.970;5.892;2022-07-03T14:04:26;6.30;;;1.50;;
47337;SDS011;33069;51.970;5.892;2022-07-03T14:06:52;3.17;;;1.77;;
47337;SDS011;33069;51.970;5.892;2022-07-03T14:09:18;5.63;;;1.90;;
47337;SDS011;33069;51.970;5.892;2022-07-03T14:11:44;2.58;;;2.00;;
47337;SDS011;33069;51.970;5.892;2022-07-03T14:14:10;1.77;;;1.42;;
47337;SDS011;33069;51.970;5.892;2022-07-03T14:16:36;3.72;;;1.48;;
47337;SDS011;33069;51.970;5.892;2022-07-03T14:19:02;3.42;;;1.50;;
47337;SDS011;33069;51.970;5.892;2022-07-03T14:21:30;3.63;;;1.27;;
47337;SDS011;33069;51.970;5.892;2022-07-03T14:23:56;4.40;;;1.52;;
47337;SDS011;33069;51.970;5.892;2022-07-03T14:26:22;4.63;;;1.90;;
47337;SDS011;33069;51.970;5.892;2022-07-03T14:29:06;4.18;;;1.95;;
47337;SDS011;33069;51.970;5.892;2022-07-03T14:31:54;3.30;;;1.58;;
47337;SDS011;33069;51.970;5.892;2022-07-03T14:34:39;5.03;;;1.77;;
47337;SDS011;33069;51.970;5.892;2022-07-03T14:37:05;4.60;;;1.70;;
47337;SDS011;33069;51.970;5.892;2022-07-03T14:39:31;5.55;;;2.17;;
47337;SDS011;33069;51.970;5.892;2022-07-03T14:41:57;3.60;;;1.42;;
47337;SDS011;33069;51.970;5.892;2022-07-03T14:44:23;4.30;;;1.50;;
47337;SDS011;33069;51.970;5.892;2022-07-03T14:46:52;3.28;;;1.40;;
47337;SDS011;33069;51.970;5.892;2022-07-03T14:49:18;3.50;;;1.60;;
47337;SDS011;33069;51.970;5.892;2022-07-03T14:51:44;2.50;;;1.45;;
47337;SDS011;33069;51.970;5.892;2022-07-03T14:54:11;4.88;;;1.50;;
47337;SDS011;33069;51.970;5.892;2022-07-03T14:56:42;5.75;;;1.70;;
47337;SDS011;33069;51.970;5.892;2022-07-03T14:59:16;6.03;;;1.50;;
47337;SDS011;33069;51.970;5.892;2022-07-03T15:01:50;3.60;;;1.33;;
47337;SDS011;33069;51.970;5.892;2022-07-03T15:04:26;6.97;;;1.85;;
47337;SDS011;33069;51.970;5.892;2022-07-03T15:07:00;4.07;;;1.50;;
47337;SDS011;33069;51.970;5.892;2022-07-03T15:09:31;3.63;;;1.50;;
47337;SDS011;33069;51.970;5.892;2022-07-03T15:12:02;4.63;;;1.63;;
47337;SDS011;33069;51.970;5.892;2022-07-03T15:14:54;5.70;;;2.60;;
47337;SDS011;33069;51.970;5.892;2022-07-03T15:17:20;3.88;;;1.60;;
47337;SDS011;33069;51.970;5.892;2022-07-03T15:19:46;5.15;;;1.50;;
47337;SDS011;33069;51.970;5.892;2022-07-03T15:22:13;3.80;;;1.45;;
47337;SDS011;33069;51.970;5.892;2022-07-03T15:24:40;5.13;;;1.40;;
47337;SDS011;33069;51.970;5.892;2022-07-03T15:27:06;4.85;;;1.38;;
47337;SDS011;33069;51.970;5.892;2022-07-03T15:29:33;3.35;;;1.58;;
47337;SDS011;33069;51.970;5.892;2022-07-03T15:32:01;4.65;;;1.85;;
47337;SDS011;33069;51.970;5.892;2022-07-03T15:34:29;4.95;;;1.40;;
47337;SDS011;33069;51.970;5.892;2022-07-03T15:37:01;5.13;;;1.65;;
47337;SDS011;33069;51.970;5.892;2022-07-03T15:39:52;6.15;;;1.50;;
47337;SDS011;33069;51.970;5.892;2022-07-03T15:50:26;5.82;;;1.52;;
47337;SDS011;33069;51.970;5.892;2022-07-03T15:53:14;3.17;;;1.45;;
47337;SDS011;33069;51.970;5.892;2022-07-03T15:55:44;3.83;;;1.77;;
47337;SDS011;33069;51.970;5.892;2022-07-03T15:58:13;2.72;;;1.30;;
47337;SDS011;33069;51.970;5.892;2022-07-03T16:00:39;7.50;;;1.50;;
47337;SDS011;33069;51.970;5.892;2022-07-03T16:05:47;3.63;;;1.30;;
47337;SDS011;33069;51.970;5.892;2022-07-03T16:08:14;3.08;;;1.42;;
47337;SDS011;33069;51.970;5.892;2022-07-03T16:10:41;3.85;;;1.60;;
47337;SDS011;33069;51.970;5.892;2022-07-03T16:13:08;5.25;;;1.70;;
47337;SDS011;33069;51.970;5.892;2022-07-03T16:15:39;6.28;;;1.40;;
47337;SDS011;33069;51.970;5.892;2022-07-03T16:18:08;3.72;;;1.20;;
47337;SDS011;33069;51.970;5.892;2022-07-03T16:20:35;3.63;;;1.33;;
47337;SDS011;33069;51.970;5.892;2022-07-03T16:23:02;3.83;;;1.20;;
47337;SDS011;33069;51.970;5.892;2022-07-03T16:25:30;4.63;;;1.20;;
47337;SDS011;33069;51.970;5.892;2022-07-03T16:27:57;2.72;;;1.10;;
47337;SDS011;33069;51.970;5.892;2022-07-03T16:30:29;4.07;;;1.42;;
47337;SDS011;33069;51.970;5.892;2022-07-03T16:32:56;12.80;;;1.70;;
47337;SDS011;33069;51.970;5.892;2022-07-03T16:38:02;3.20;;;1.20;;
47337;SDS011;33069;51.970;5.892;2022-07-03T16:40:30;3.90;;;1.27;;
47337;SDS011;33069;51.970;5.892;2022-07-03T16:43:00;3.10;;;1.35;;
47337;SDS011;33069;51.970;5.892;2022-07-03T16:45:30;2.67;;;1.30;;
47337;SDS011;33069;51.970;5.892;2022-07-03T16:48:00;2.80;;;1.60;;
47337;SDS011;33069;51.970;5.892;2022-07-03T16:50:35;2.25;;;1.00;;
47337;SDS011;33069;51.970;5.892;2022-07-03T16:53:01;4.07;;;1.48;;